Tiempo atmosférico en la estación meteorológica de Brozas , Cáceres (411 m.)



Fecha
DESCASC
Temp. máxima en grados centígrados (hora)
DESCASC
Temp. mínima en grados centígrados (hora)
DESCASC
Temp. media en grados centígrados
DESCASC
Racha de viento máxima en m/sg (hora)
DESCASC
Velocidad máxima media en intervalos de 10 minutos(hora)
DESCASC
Precipitaciones diarias en mm
DESCASC
Precipitaciones de 00:00 a 06:00 en mm
DESCASC
Precipitaciones de 06:00 a 12:00 en mm
DESCASC
Precipitaciones de 12:00 a 18:00 en mm
DESCASC
Precipitaciones de 18:00 a 24:00 en mm
DESCASC
06-07-2020 40 (18:20) 21.5 (07:30) 30.8 10.28 (21:00) 7.78 (21:10) 0 0 0 0 0
05-07-2020 38.5 (17:50) 20.9 (06:20) 29.7 10.56 (09:50) 6.94 (09:50) 0 0 0 0 0
04-07-2020 36.4 (17:50) 16.4 (06:20) 26.4 9.17 (10:00) 6.39 (10:10) 0 0 0 0 0
03-07-2020 32.7 (18:20) 12 (07:00) 22.4 7.22 (14:00) 5 (23:40) 0 0 0 0 0
02-07-2020 30.1 (16:40) 15.5 (00:00) 22.8 11.67 (17:20) 8.33 (20:10) 0 0 0 0 0
01-07-2020 34.4 (16:30) 16.2 (00:00) 25.3 11.11 (18:20) 7.78 (20:50) 0 0 0 0 0
30-06-2020 -- (--) -- (--) -- -- (--) -- (--) 0 0 0 0 0
29-06-2020 -- (--) -- (--) -- -- (--) -- (--) 0 0 0 0 0
28-06-2020 -- (--) -- (--) -- -- (--) -- (--) 0 0 0 0 0
27-06-2020 31.2 (18:20) 14.6 (00:00) 22.9 9.44 (19:50) 6.11 (21:50) 0 0 0 0 0
26-06-2020 28.9 (17:00) 11.3 (00:00) 20.1 9.72 (20:30) 6.94 (20:30) 0 0 0 0 0
25-06-2020 32.3 (16:30) 17.4 (00:00) 24.8 10.83 (17:10) 7.22 (19:00) 0 0 0 0 0
24-06-2020 34.4 (16:50) 19.5 (00:00) 27 9.72 (18:00) 6.11 (18:40) 0 0 0 0 0
23-06-2020 37.8 (17:30) 21.6 (00:00) 29.7 10.83 (18:20) 6.39 (17:00) 0 0 0 0 0
22-06-2020 37.5 (17:50) 16.2 (00:00) 26.9 10.83 (10:40) 7.5 (11:40) 0 0 0 0 0
21-06-2020 33.6 (17:30) 12.8 (00:00) 23.2 8.06 (18:30) 5.56 (20:00) 0 0 0 0 0
20-06-2020 32.2 (17:40) 13.1 (00:00) 22.7 9.44 (21:30) 6.94 (21:30) 0 0 0 0 0
19-06-2020 30.2 (18:00) 11.6 (00:00) 20.9 10.28 (15:40) 5.83 (22:10) 0 0 0 0 0
18-06-2020 28.4 (17:50) 11.4 (00:00) 19.9 11.39 (21:10) 8.33 (21:10) 0 0 0 0 0
17-06-2020 25.9 (17:50) 9.6 (00:00) 17.8 9.17 (17:50) 6.67 (00:20) 0 0 0 0 0
16-06-2020 26 (17:00) 12.1 (00:00) 19.1 14.17 (19:00) 10.56 (19:00) 0 0 0 0 0
15-06-2020 26.4 (18:10) 10.6 (00:00) 18.5 10 (21:20) 7.5 (21:10) 0 0 0 0 0
14-06-2020 25.6 (17:50) 10.7 (00:00) 18.2 10.83 (21:00) 8.06 (21:00) 0 0 0 0 0
13-06-2020 22.9 (17:50) 9.7 (00:00) 16.3 8.89 (18:20) 6.11 (18:30) 0 0 0 0 0
12-06-2020 21.2 (15:40) 8.3 (00:00) 14.8 13.89 (19:10) 10.56 (19:00) 0 0 0 0 0
11-06-2020 23 (14:30) 10.4 (00:00) 16.7 16.39 (18:30) 12.78 (18:20) 0 0 0 0 0
10-06-2020 28.2 (16:30) 12.2 (00:00) 20.2 12.22 (17:20) 7.5 (22:50) 0 0 0 0 0

Gráficas

Temp. máximas Temp. mínimas Temp. medias Precipitaciones Rachas de viento máximas Velocidades máximas media en intervalos de 10 minutos

Datos horarios

Fecha y hora oficial Temperatura (ºC) Velocidad del viento (km/h) Dirección del viento Racha (km/h) Dirección de racha Precipitación (mm) Presión (hPa) Tendencia (hPa) Humedad (%)
2020-07-09 23:00:00 28.3 21 Oeste 29 Oeste 0 -- -- 29
2020-07-09 22:00:00 31.4 8 Sudoeste 10 Oeste 0 -- -- 21
2020-07-09 21:00:00 33.7 4 Sudoeste 16 Noroeste 0 -- -- 19
2020-07-09 20:00:00 34.5 8 Oeste 20 Noroeste 0 -- -- 18
2020-07-09 19:00:00 34.9 8 Oeste 22 Sudoeste 0 -- -- 19
2020-07-09 18:00:00 35.1 10 Sudoeste 23 Sudoeste 0 -- -- 18
2020-07-09 17:00:00 34 9 Sudeste 20 Sudeste 0 -- -- 21
2020-07-09 16:00:00 33.8 7 Sur 19 Sudoeste 0 -- -- 22
2020-07-09 15:00:00 32.3 5 Noroeste 18 Oeste 0 -- -- 24
2020-07-09 14:00:00 31.2 9 Sudoeste 23 Sur 0 -- -- 28
2020-07-09 13:00:00 29.8 5 Sur 13 Sur 0 -- -- 27
2020-07-09 12:00:00 27.4 8 Sudoeste 20 Sur 0 -- -- 39
2020-07-09 11:00:00 25.3 7 Sudoeste 15 Sudoeste 0 -- -- 47
2020-07-09 10:00:00 23.6 9 Sur 14 Sur 0 -- -- 48
2020-07-09 09:00:00 19.8 5 Sudeste 11 Sudeste 0 -- -- 68
2020-07-09 08:00:00 17 10 Sudeste 15 Sudeste 0 -- -- 79
2020-07-09 07:00:00 17.2 12 Sudeste 17 Sudeste 0 -- -- 78
2020-07-09 06:00:00 16.6 12 Sudeste 14 Sudeste 0 -- -- 76
2020-07-09 05:00:00 18.1 3 Noroeste 13 Sudoeste 0 -- -- 68
2020-07-09 04:00:00 19.1 13 Sudoeste 15 Sudoeste 0 -- -- 64
2020-07-09 03:00:00 20 14 Sudoeste 21 Sudoeste 0 -- -- 63
2020-07-09 02:00:00 20.4 15 Sudoeste 18 Sudoeste 0 -- -- 66
2020-07-09 01:00:00 22.2 14 Sudoeste 24 Oeste 0 -- -- 60
2020-07-09 00:00:00 23.9 20 Oeste 28 Oeste 0 -- -- 55
2020-07-08 23:00:00 26.1 18 Oeste 28 Oeste 0 -- -- 33
2020-07-08 22:00:00 27.9 21 Oeste 30 Oeste 0 -- -- 25
2020-07-08 21:00:00 31 24 Oeste 31 Oeste 0 -- -- 22
2020-07-08 20:00:00 33.3 20 Oeste 37 Oeste 0 -- -- 18
2020-07-08 19:00:00 34.6 21 Oeste 37 Oeste 0 -- -- 18
2020-07-08 18:00:00 35.3 14 Sudoeste 32 Sudoeste 0 -- -- 21
2020-07-08 17:00:00 35.6 14 Sudoeste 32 Sur 0 -- -- 13
2020-07-08 16:00:00 35.1 17 Sudoeste 32 Sur 0 -- -- 16
2020-07-08 15:00:00 34.8 17 Sur 33 Sur 0 -- -- 17
2020-07-08 14:00:00 33.1 14 Sudoeste 27 Sudoeste 0 -- -- 26
2020-07-08 13:00:00 30.4 6 Oeste 21 Noroeste 0 -- -- 30
2020-07-08 12:00:00 27.9 10 Noroeste 20 Noroeste 0 -- -- 34
2020-07-08 11:00:00 26.3 9 Noroeste 17 Noroeste 0 -- -- 36
2020-07-08 10:00:00 24.8 9 Norte 13 Noroeste 0 -- -- 41
2020-07-08 09:00:00 23.8 4 Noroeste 11 Sudoeste 0 -- -- 41
2020-07-08 08:00:00 22.4 10 Sudoeste 14 Sudoeste 0 -- -- 42
2020-07-08 07:00:00 22.6 11 Sudoeste 15 Sudoeste 0 -- -- 38
2020-07-08 06:00:00 22.9 12 Oeste 14 Oeste 0 -- -- 44
2020-07-08 05:00:00 24 8 Sudoeste 12 Sudoeste 0 -- -- 51
2020-07-08 04:00:00 25.1 10 Sudoeste 15 Oeste 0 -- -- 49
2020-07-08 03:00:00 26.3 13 Oeste 18 Oeste 0 -- -- 46
2020-07-08 02:00:00 26.8 12 Oeste 21 Oeste 0 -- -- 45
2020-07-08 01:00:00 28 15 Noroeste 20 Oeste 0 -- -- 34
2020-07-08 00:00:00 29.9 12 Oeste 19 Oeste 0 -- -- 27
2020-07-07 23:00:00 31.5 15 Oeste 18 Sudoeste 0 -- -- 22
2020-07-07 22:00:00 32.2 14 Oeste 21 Oeste 0 -- -- 21
2020-07-07 21:00:00 35.7 16 Oeste 25 Sudoeste 0 -- -- 17
2020-07-07 20:00:00 38.1 17 Sudoeste 26 Oeste 0 -- -- 14
2020-07-07 19:00:00 39.1 14 Oeste 30 Oeste 0 -- -- 14
2020-07-07 18:00:00 39.3 13 Oeste 32 Sudoeste 0 -- -- 14
2020-07-07 17:00:00 39.2 15 Oeste 36 Oeste 0 -- -- 14
2020-07-07 16:00:00 38.6 13 Oeste 48 Noroeste 0 -- -- 15
2020-07-07 15:00:00 37.1 13 Oeste 26 Oeste 0 -- -- 17
2020-07-07 14:00:00 35.7 14 Sudoeste 26 Oeste 0 -- -- 17
2020-07-07 13:00:00 34.8 12 Oeste 22 Oeste 0 -- -- 17
2020-07-07 12:00:00 33.3 6 Sudoeste 16 Sudoeste 0 -- -- 16
2020-07-07 11:00:00 31.7 6 Sudoeste 12 Sudoeste 0 -- -- 23
2020-07-07 10:00:00 29.7 5 Sudeste 12 Nordeste 0 -- -- 30
2020-07-07 09:00:00 26.3 5 Nordeste 8 Sudeste 0 -- -- 39
2020-07-07 08:00:00 24.4 8 Sudeste 10 Sudoeste 0 -- -- 39
2020-07-07 07:00:00 24.6 9 Sudoeste 10 Sudoeste 0 -- -- 38
2020-07-07 06:00:00 24.8 8 Sur 13 Sur 0 -- -- 38
2020-07-07 05:00:00 24.9 7 Sur 9 Sur 0 -- -- 40
2020-07-07 04:00:00 26.2 6 Noroeste 10 Noroeste 0 -- -- 36
2020-07-07 03:00:00 25.9 7 Noroeste 15 Noroeste 0 -- -- 39
2020-07-07 02:00:00 26.8 14 Noroeste 17 Noroeste 0 -- -- 37
2020-07-07 01:00:00 26.2 15 Noroeste 22 Noroeste 0 -- -- 39
2020-07-07 00:00:00 28.5 18 Noroeste 31 Noroeste 0 -- -- 35
2020-07-06 23:00:00 30.8 25 Noroeste 35 Oeste 0 -- -- 35
2020-07-06 22:00:00 33.2 22 Oeste 37 Oeste 0 -- -- 22
2020-07-06 21:00:00 37 22 Noroeste 37 Oeste 0 -- -- 19
2020-07-06 20:00:00 39 13 Noroeste 26 Noroeste 0 -- -- 16
2020-07-06 19:00:00 39.6 8 Norte 24 Noroeste 0 -- -- 15
2020-07-06 18:00:00 39.9 11 Norte 28 Noroeste 0 -- -- 15
2020-07-06 17:00:00 39.6 17 Noroeste 29 Oeste 0 -- -- 14
2020-07-06 16:00:00 38.9 9 Noroeste 28 Oeste 0 -- -- 15
2020-07-06 15:00:00 38.1 8 Oeste 28 Oeste 0 -- -- 16
2020-07-06 14:00:00 37.6 12 Norte 21 Norte 0 -- -- 17
2020-07-06 13:00:00 36.5 8 Norte 19 Nordeste 0 -- -- 20
2020-07-06 12:00:00 34.7 6 Nordeste 15 Norte 0 -- -- 23
2020-07-06 11:00:00 32 10 Nordeste 18 Nordeste 0 -- -- 26
2020-07-06 10:00:00 29.8 9 Norte 20 Nordeste 0 -- -- 31
2020-07-06 09:00:00 26.4 5 Norte 9 Noroeste 0 -- -- 42
2020-07-06 08:00:00 22.5 9 Noroeste 15 Norte 0 -- -- 48
2020-07-06 07:00:00 22.1 11 Noroeste 13 Noroeste 0 -- -- 47
2020-07-06 06:00:00 22.6 12 Noroeste 15 Noroeste 0 -- -- 45
2020-07-06 05:00:00 23.5 10 Noroeste 13 Noroeste 0 -- -- 43
2020-07-06 04:00:00 24.9 8 Noroeste 10 Noroeste 0 -- -- 41
2020-07-06 03:00:00 25.5 6 Oeste 9 Oeste 0 -- -- 34
2020-07-06 02:00:00 25.2 5 Sudoeste 17 Noroeste 0 -- -- 30
2020-07-06 01:00:00 26.9 14 Noroeste 18 Noroeste 0 -- -- 27
2020-07-06 00:00:00 28.2 12 Noroeste 18 Noroeste 0 -- -- 25
2020-07-05 23:00:00 29.8 14 Nordeste 15 Nordeste 0 -- -- 22
2020-07-05 22:00:00 31.9 10 Norte 14 Norte 0 -- -- 21
2020-07-05 21:00:00 36 11 Norte 16 Norte 0 -- -- 18
2020-07-05 20:00:00 37.5 7 Nordeste 17 Norte 0 -- -- 16
2020-07-05 19:00:00 38.1 15 Noroeste 32 Norte 0 -- -- 16
2020-07-05 18:00:00 38.2 7 Oeste 21 Noroeste 0 -- -- 16
2020-07-05 17:00:00 38.2 13 Nordeste 26 Nordeste 0 -- -- 17
2020-07-05 16:00:00 37.7 8 Este 22 Norte 0 -- -- 18
2020-07-05 15:00:00 37.1 9 Norte 24 Este 0 -- -- 18
2020-07-05 14:00:00 36.1 9 Este 26 Este 0 -- -- 21
2020-07-05 13:00:00 35.1 8 Este 24 Este 0 -- -- 25
2020-07-05 12:00:00 32.7 15 Este 26 Este 0 -- -- 27
2020-07-05 11:00:00 30.9 17 Este 33 Este 0 -- -- 28
2020-07-05 10:00:00 28.6 23 Este 38 Este 0 -- -- 28
2020-07-05 09:00:00 26.3 24 Este 36 Este 0 -- -- 26
2020-07-05 08:00:00 24.3 24 Este 32 Este 0 -- -- 29
2020-07-05 07:00:00 22 18 Nordeste 23 Nordeste 0 -- -- 32
2020-07-05 06:00:00 21.4 11 Nordeste 14 Nordeste 0 -- -- 32
2020-07-05 05:00:00 22.5 5 Norte 22 Nordeste 0 -- -- 30
2020-07-05 04:00:00 24.1 19 Nordeste 24 Nordeste 0 -- -- 28
2020-07-05 03:00:00 24.6 19 Nordeste 25 Nordeste 0 -- -- 29
2020-07-05 02:00:00 23.1 15 Nordeste 21 Nordeste 0 -- -- 33
2020-07-05 01:00:00 26.4 18 Nordeste 28 Nordeste 0 -- -- 25
2020-07-05 00:00:00 28.1 12 Nordeste 14 Nordeste 0 -- -- 20
2020-07-04 23:00:00 28.7 13 Nordeste 15 Nordeste 0 -- -- 19
2020-07-04 22:00:00 28.7 13 Norte 17 Norte 0 -- -- 20
2020-07-04 21:00:00 33.8 11 Norte 20 Nordeste 0 -- -- 17
2020-07-04 20:00:00 35.3 11 Nordeste 28 Sudeste 0 -- -- 17
2020-07-04 19:00:00 35.5 7 Este 23 Este 0 -- -- 15
2020-07-04 18:00:00 35.9 9 Nordeste 21 Nordeste 0 -- -- 14
2020-07-04 17:00:00 35.8 9 Noroeste 24 Nordeste 0 -- -- 15
2020-07-04 16:00:00 35.6 7 Norte 24 Norte 0 -- -- 16
2020-07-04 15:00:00 34.6 12 Nordeste 26 Nordeste 0 -- -- 17
2020-07-04 14:00:00 33.6 4 Sudeste 21 Sudeste 0 -- -- 19
2020-07-04 13:00:00 32.1 9 Nordeste 22 Nordeste 0 -- -- 22
2020-07-04 12:00:00 30.3 8 Este 27 Este 0 -- -- 25
2020-07-04 11:00:00 27.7 19 Este 33 Este 0 -- -- 29
2020-07-04 10:00:00 25.7 22 Este 33 Este 0 -- -- 32
2020-07-04 09:00:00 22.2 12 Norte 17 Norte 0 -- -- 44
2020-07-04 08:00:00 17.8 8 Noroeste 12 Noroeste 0 -- -- 63
2020-07-04 07:00:00 16.7 9 Norte 12 Norte 0 -- -- 66
2020-07-04 06:00:00 16.6 13 Noroeste 18 Norte 0 -- -- 66
2020-07-04 05:00:00 17.1 17 Norte 19 Noroeste 0 -- -- 64
2020-07-04 04:00:00 18.2 17 Noroeste 18 Noroeste 0 -- -- 61
2020-07-04 03:00:00 19.1 14 Noroeste 15 Norte 0 -- -- 58
2020-07-04 02:00:00 20.1 14 Noroeste 15 Norte 0 -- -- 56
2020-07-04 01:00:00 21.4 9 Noroeste 15 Noroeste 0 -- -- 54
2020-07-04 00:00:00 23.4 15 Noroeste 26 Norte 0 -- -- 47
2020-07-03 23:00:00 27.9 5 Oeste -- -- 0 -- -- 19
2020-07-03 22:00:00 29.6 3 Noroeste 8 Norte 0 -- -- 17
2020-07-03 21:00:00 30.9 8 Norte 23 Noroeste 0 -- -- 17
2020-07-03 20:00:00 32.3 8 Norte 19 Noroeste 0 -- -- 18
2020-07-03 19:00:00 32.3 15 Norte 23 Norte 0 -- -- 19
2020-07-03 18:00:00 32.4 7 Norte 21 Norte 0 -- -- 19
2020-07-03 17:00:00 32.2 9 Noroeste 18 Noroeste 0 -- -- 21
2020-07-03 16:00:00 31 10 Noroeste 20 Noroeste 0 -- -- 23
2020-07-03 15:00:00 29.8 11 Norte 19 Noroeste 0 -- -- 24
2020-07-03 14:00:00 28.2 10 Noroeste 26 Norte 0 -- -- 28
2020-07-03 13:00:00 26.7 10 Norte 19 Nordeste 0 -- -- 32
2020-07-03 12:00:00 24.5 9 Norte 21 Noroeste 0 -- -- 38
2020-07-03 11:00:00 22.8 13 Norte 19 Noroeste 0 -- -- 42
2020-07-03 10:00:00 19.8 13 Noroeste 18 Noroeste 0 -- -- 49
2020-07-03 09:00:00 16.6 11 Noroeste 14 Noroeste 0 -- -- 62
2020-07-03 08:00:00 13.2 10 Noroeste 13 Noroeste 0 -- -- 74
2020-07-03 07:00:00 12 9 Noroeste 13 Noroeste 0 -- -- 77
2020-07-03 06:00:00 12.3 12 Noroeste 15 Noroeste 0 -- -- 75
2020-07-03 05:00:00 12.5 14 Noroeste 15 Noroeste 0 -- -- 73
2020-07-03 04:00:00 13.1 12 Noroeste 16 Noroeste 0 -- -- 70
2020-07-03 03:00:00 14 13 Noroeste 19 Noroeste 0 -- -- 67
2020-07-03 02:00:00 14.9 15 Noroeste 20 Noroeste 0 -- -- 65
2020-07-03 01:00:00 16 15 Noroeste 21 Noroeste 0 -- -- 61
2020-07-03 00:00:00 17.8 17 Noroeste 25 Noroeste 0 -- -- 55
2020-07-02 23:00:00 19.5 20 Noroeste 31 Noroeste 0 -- -- 47
2020-07-02 22:00:00 22 23 Noroeste 33 Noroeste 0 -- -- 40
2020-07-02 21:00:00 25.4 26 Oeste 39 Oeste 0 -- -- 30
2020-07-02 20:00:00 27.6 28 Noroeste 39 Oeste 0 -- -- 30
2020-07-02 19:00:00 29 26 Noroeste 38 Oeste 0 -- -- 30
2020-07-02 18:00:00 29.6 23 Oeste 42 Oeste 0 -- -- 28
2020-07-02 17:00:00 29.9 24 Noroeste 42 Oeste 0 -- -- 29
2020-07-02 16:00:00 29.3 16 Noroeste 41 Noroeste 0 -- -- 33
2020-07-02 15:00:00 28.9 23 Oeste 37 Oeste 0 -- -- 33
2020-07-02 14:00:00 28.1 22 Noroeste 35 Oeste 0 -- -- 38
2020-07-02 13:00:00 27.5 22 Oeste 32 Oeste 0 -- -- 40
2020-07-02 12:00:00 25.7 16 Noroeste 28 Oeste 0 -- -- 45
2020-07-02 11:00:00 23.8 13 Noroeste 21 Oeste 0 -- -- 52
2020-07-02 10:00:00 21.6 10 Noroeste 17 Noroeste 0 -- -- 63
2020-07-02 09:00:00 19 10 Noroeste 15 Noroeste 0 -- -- 73
2020-07-02 08:00:00 16.5 7 Noroeste 15 Noroeste 0 -- -- 85
2020-07-02 07:00:00 15.6 11 Oeste 13 Oeste 0 -- -- 86
2020-07-02 06:00:00 15.8 9 Noroeste 19 Noroeste 0 -- -- 85
2020-07-02 05:00:00 17.1 16 Noroeste 21 Noroeste 0 -- -- 82
2020-07-02 04:00:00 17.7 14 Oeste 21 Noroeste 0 -- -- 78
2020-07-02 03:00:00 18.5 13 Noroeste 22 Oeste 0 -- -- 73
2020-07-02 02:00:00 20 15 Noroeste 22 Noroeste 0 -- -- 67
2020-07-02 01:00:00 21.2 14 Noroeste 24 Noroeste 0 -- -- 58
2020-07-02 00:00:00 22.7 17 Noroeste 23 Noroeste 0 -- -- 51
2020-07-01 23:00:00 23.9 15 Noroeste 27 Noroeste 0 -- -- 44
2020-07-01 22:00:00 27.1 22 Noroeste 34 Noroeste 0 -- -- 39
2020-07-01 21:00:00 30.6 27 Oeste 37 Oeste 0 -- -- 34
2020-07-01 20:00:00 32.9 25 Oeste 37 Oeste 0 -- -- 29
2020-07-01 19:00:00 33.6 23 Oeste 40 Sudoeste 0 -- -- 28
2020-07-01 18:00:00 34.3 17 Oeste 34 Oeste 0 -- -- 27
2020-07-01 17:00:00 34.2 17 Oeste 33 Oeste 0 -- -- 24
2020-07-01 16:00:00 33.6 15 Noroeste 30 Oeste 0 -- -- 25
2020-07-01 15:00:00 32.4 13 Noroeste 27 Oeste 0 -- -- 31
2020-07-01 14:00:00 31 9 Oeste 21 Noroeste 0 -- -- 36
2020-07-01 13:00:00 29.2 8 Noroeste 21 Noroeste 0 -- -- 41
2020-07-01 12:00:00 26.9 7 Norte 17 Noroeste 0 -- -- 49
2020-07-01 11:00:00 24.7 10 Oeste 17 Oeste 0 -- -- 55
2020-07-01 10:00:00 22.2 13 Noroeste 20 Oeste 0 -- -- 63
2020-07-01 09:00:00 19.8 10 Oeste 14 Oeste 0 -- -- 73
2020-07-01 08:00:00 17.3 5 Sudoeste 11 Sudoeste 0 -- -- 84
2020-07-01 07:00:00 16.3 10 Sudoeste 13 Oeste 0 -- -- 87
2020-07-01 06:00:00 16.5 12 Sudoeste 14 Sudoeste 0 -- -- 86
2020-07-01 05:00:00 17.7 6 Sudoeste 15 Oeste 0 -- -- 79
2020-07-01 04:00:00 18.4 9 Oeste 13 Oeste 0 -- -- 77
2020-07-01 03:00:00 19.5 9 Oeste 15 Oeste 0 -- -- 74
2020-07-01 02:00:00 20.3 14 Oeste 19 Oeste 0 -- -- 70
2020-07-01 01:00:00 22.3 14 Oeste 27 Oeste 0 -- -- 62
2020-07-01 00:00:00 23.4 19 Noroeste 27 Oeste 0 -- -- 58
2020-06-30 23:00:00 25.6 19 Noroeste 33 Oeste 0 -- -- 49
2020-06-30 22:00:00 28.6 21 Oeste 37 Oeste 0 -- -- 38
2020-06-30 21:00:00 31.8 24 Oeste 36 Oeste 0 -- -- 27
2020-06-30 20:00:00 33.9 24 Oeste 36 Oeste 0 -- -- 26
2020-06-30 19:00:00 34.9 25 Oeste 42 Oeste 0 -- -- 24
2020-06-30 18:00:00 36 23 Sudoeste 37 Sudoeste 0 -- -- 23
2020-06-30 17:00:00 36.6 26 Sudoeste 37 Sudoeste 0 -- -- 23
2020-06-30 16:00:00 36.8 22 Sudoeste 43 Sudoeste 0 -- -- 23
2020-06-30 15:00:00 36.1 18 Sudoeste 37 Sur 0 -- -- 24
2020-06-30 14:00:00 34.9 9 Sudoeste 26 Oeste 0 -- -- 26
2020-06-30 13:00:00 33.3 10 Oeste 21 Oeste 0 -- -- 25
2020-06-30 12:00:00 32 6 Noroeste 12 Oeste 0 -- -- 34
2020-06-30 11:00:00 28.8 6 Noroeste 12 Noroeste 0 -- -- 46
2020-06-30 10:00:00 26.6 7 Noroeste 12 Noroeste 0 -- -- 53
2020-06-30 09:00:00 24.1 4 Oeste 14 Sudeste 0 -- -- 61
2020-06-30 08:00:00 -- 3 Oeste 9 Noroeste 0 -- -- --
2020-06-30 07:00:00 19.9 8 Oeste 10 Oeste 0 -- -- 73
2020-06-30 06:00:00 20.6 9 Noroeste 11 Noroeste 0 -- -- 71
2020-06-30 05:00:00 21.1 11 Noroeste 15 Noroeste 0 -- -- 69
2020-06-30 04:00:00 -- -- -- -- -- -- -- -- --
2020-06-30 03:00:00 -- -- -- -- -- -- -- -- --
2020-06-30 02:00:00 -- -- -- -- -- -- -- -- --
2020-06-30 01:00:00 -- -- -- -- -- -- -- -- --
2020-06-30 00:00:00 -- -- -- -- -- -- -- -- --
2020-06-29 23:00:00 -- -- -- -- -- -- -- -- --
2020-06-29 22:00:00 -- -- -- -- -- -- -- -- --
2020-06-29 21:00:00 -- 11 Noroeste 24 Noroeste 0 -- -- --
2020-06-29 20:00:00 -- -- -- -- -- -- -- -- --
2020-06-29 19:00:00 36.6 7 Sur 21 Noroeste 0 -- -- 24
2020-06-29 18:00:00 36 6 Noroeste 23 Sur 0 -- -- 24
2020-06-29 17:00:00 36.1 11 Oeste 24 Oeste 0 -- -- 22
2020-06-29 16:00:00 35.1 10 Oeste 22 Oeste 0 -- -- 25
2020-06-29 15:00:00 34.4 9 Sudoeste 23 Oeste 0 -- -- 26
2020-06-29 14:00:00 33.1 9 Noroeste 20 Oeste 0 -- -- 31
2020-06-29 13:00:00 31.4 6 Noroeste 17 Oeste 0 -- -- 36
2020-06-29 12:00:00 30.2 6 Nordeste 16 Nordeste 0 -- -- 40
2020-06-29 11:00:00 27.8 9 Nordeste 17 Nordeste 0 -- -- 45
2020-06-29 10:00:00 25.6 12 Nordeste 19 Norte 0 -- -- 52
2020-06-29 09:00:00 22.4 13 Norte -- -- -- -- -- 63
2020-06-29 08:00:00 -- -- -- -- -- -- -- -- --
2020-06-29 07:00:00 -- 13 Norte 18 Norte -- -- -- --
2020-06-29 06:00:00 -- -- -- -- -- -- -- -- --
2020-06-29 05:00:00 19.5 14 Norte 18 Norte 0 -- -- 72
2020-06-29 04:00:00 -- 15 Norte 19 Norte -- -- -- --
2020-06-29 03:00:00 20.5 13 Norte -- -- -- -- -- 68
2020-06-29 02:00:00 -- -- -- -- -- -- -- -- --
2020-06-29 01:00:00 -- -- -- -- -- -- -- -- --
2020-06-29 00:00:00 -- 17 Norte -- -- -- -- -- --
2020-06-28 23:00:00 -- 15 Norte -- -- -- -- -- --
2020-06-28 22:00:00 28.5 12 Noroeste 21 Noroeste 0 -- -- 37
2020-06-28 21:00:00 32 17 Noroeste 27 Noroeste 0 -- -- 31
2020-06-28 20:00:00 33.2 15 Noroeste 28 Noroeste 0 -- -- 29
2020-06-28 19:00:00 34.1 13 Noroeste 26 Norte 0 -- -- 28
2020-06-28 18:00:00 34 12 Norte 23 Norte 0 -- -- 29
2020-06-28 17:00:00 33.2 5 Oeste 23 Noroeste 0 -- -- 29
2020-06-28 16:00:00 32.3 10 Noroeste 20 Noroeste 0 -- -- 30
2020-06-28 15:00:00 31.5 13 Oeste 27 Norte 0 -- -- 33
2020-06-28 14:00:00 30.6 10 Noroeste 34 Nordeste 0 -- -- 36
2020-06-28 13:00:00 29.4 11 Norte 24 Noroeste 0 -- -- 39
2020-06-28 12:00:00 27.3 12 Norte 19 Norte 0 -- -- 44
2020-06-28 11:00:00 26 10 Norte 17 Norte 0 -- -- 49
2020-06-28 10:00:00 23.5 10 Norte 16 Norte 0 -- -- 57
2020-06-28 09:00:00 20.1 10 Norte 14 Noroeste 0 -- -- 71
2020-06-28 08:00:00 17.5 10 Noroeste 12 Noroeste 0 -- -- 80
2020-06-28 07:00:00 17 8 Noroeste 9 Noroeste 0 -- -- 81
2020-06-28 06:00:00 16.8 8 Noroeste 13 Noroeste 0 -- -- 81
2020-06-28 05:00:00 17.4 12 Noroeste 15 Noroeste 0 -- -- 79
2020-06-28 04:00:00 18 13 Noroeste 15 Noroeste 0 -- -- 76
2020-06-28 03:00:00 18.3 14 Noroeste 18 Noroeste 0 -- -- 75
2020-06-28 02:00:00 19 14 Noroeste 17 Noroeste 0 -- -- 71
2020-06-28 01:00:00 20.2 14 Noroeste 16 Noroeste 0 -- -- 65
2020-06-28 00:00:00 21.6 14 Noroeste 18 Noroeste 0 -- -- 60
2020-06-27 23:00:00 24 16 Norte 30 Noroeste 0 -- -- 53
2020-06-27 22:00:00 26.1 21 Noroeste 30 Noroeste 0 -- -- 49
2020-06-27 21:00:00 29 19 Noroeste 28 Noroeste 0 -- -- 41
2020-06-27 20:00:00 30.3 18 Noroeste 34 Noroeste 0 -- -- 36
2020-06-27 19:00:00 31 13 Noroeste 29 Noroeste 0 -- -- 35
2020-06-27 18:00:00 31 12 Oeste 28 Noroeste 0 -- -- 34
2020-06-27 17:00:00 30.5 19 Noroeste 32 Oeste 0 -- -- 34
2020-06-27 16:00:00 29.9 17 Oeste 29 Oeste 0 -- -- 36
2020-06-27 15:00:00 28.8 10 Oeste 24 Noroeste 0 -- -- 37
2020-06-27 14:00:00 27.8 9 Noroeste 24 Noroeste 0 -- -- 41
2020-06-27 13:00:00 26.2 12 Noroeste 22 Noroeste 0 -- -- 43
2020-06-27 12:00:00 24 8 Noroeste 21 Noroeste 0 -- -- 52
2020-06-27 11:00:00 22.4 11 Noroeste 21 Noroeste 0 -- -- 57
2020-06-27 10:00:00 20.4 12 Noroeste 21 Noroeste 0 -- -- 67
2020-06-27 09:00:00 17.9 14 Noroeste 18 Noroeste 0 -- -- 77
2020-06-27 08:00:00 15.8 16 Noroeste 19 Noroeste 0 -- -- 88
2020-06-27 07:00:00 14.7 14 Noroeste 18 Noroeste 0 -- -- 91
2020-06-27 06:00:00 14.7 9 Noroeste 17 Noroeste 0 -- -- 89
2020-06-27 05:00:00 15.2 14 Noroeste 21 Noroeste 0 -- -- 87
2020-06-27 04:00:00 15.7 15 Noroeste 24 Noroeste 0 -- -- 83
2020-06-27 03:00:00 16.7 18 Oeste 28 Oeste 0 -- -- 78
2020-06-27 02:00:00 17.3 19 Noroeste 27 Oeste 0 -- -- 71
2020-06-27 01:00:00 18.2 17 Noroeste 29 Oeste 0 -- -- 63
2020-06-27 00:00:00 19.5 20 Oeste 28 Oeste 0 -- -- 59
2020-06-26 23:00:00 21.4 23 Oeste 32 Oeste 0 -- -- 56
2020-06-26 22:00:00 23.6 22 Oeste 33 Oeste 0 -- -- 50
2020-06-26 21:00:00 26 23 Oeste 35 Oeste 0 -- -- 41
2020-06-26 20:00:00 27.7 21 Oeste 32 Oeste 0 -- -- 34
2020-06-26 19:00:00 28.5 15 Oeste 33 Oeste 0 -- -- 33
2020-06-26 18:00:00 27.2 19 Oeste 29 Oeste 0 -- -- 32
2020-06-26 17:00:00 28.9 21 Oeste 33 Oeste 0 -- -- 26
2020-06-26 16:00:00 28.1 15 Oeste 29 Oeste 0 -- -- 28
2020-06-26 15:00:00 27.1 17 Oeste 32 Oeste 0 -- -- 32
2020-06-26 14:00:00 25.8 17 Noroeste 28 Oeste 0 -- -- 37
2020-06-26 13:00:00 24.3 15 Oeste 24 Noroeste 0 -- -- 41
2020-06-26 12:00:00 22.2 10 Sudoeste 19 Oeste 0 -- -- 47
2020-06-26 11:00:00 19.8 8 Sudoeste 18 Oeste 0 -- -- 56
2020-06-26 10:00:00 17.3 10 Sudoeste 15 Sudoeste 0 -- -- 68
2020-06-26 09:00:00 14.4 11 Sudoeste 15 Sudoeste 0 -- -- 84
2020-06-26 08:00:00 11.5 6 Sur 11 Sudoeste 0 -- -- 93
2020-06-26 07:00:00 11.4 8 Sudoeste 14 Oeste 0 -- -- 93
2020-06-26 06:00:00 12 13 Oeste 14 Oeste 0 -- -- 91
2020-06-26 05:00:00 12.4 10 Oeste 13 Noroeste 0 -- -- 90
2020-06-26 04:00:00 12.7 11 Noroeste 19 Noroeste 0 -- -- 89
2020-06-26 03:00:00 14.1 14 Noroeste 20 Noroeste 0 -- -- 85
2020-06-26 02:00:00 16.5 13 Oeste 17 Oeste 0 -- -- 77
2020-06-26 01:00:00 18.7 13 Sudoeste 18 Oeste 0 -- -- 69
2020-06-26 00:00:00 20.3 9 Oeste 27 Oeste 0 -- -- 62
2020-06-25 23:00:00 22.1 18 Oeste 28 Oeste 0 -- -- 57
2020-06-25 22:00:00 24.5 22 Oeste 30 Oeste 0 -- -- 49
2020-06-25 21:00:00 27.2 23 Oeste 33 Oeste 0 -- -- 40
2020-06-25 20:00:00 29.6 23 Oeste 37 Oeste 0 -- -- 33
2020-06-25 19:00:00 31.5 26 Oeste 34 Sudoeste 0 -- -- 34
2020-06-25 18:00:00 31.9 19 Sudoeste 39 Sur 0 -- -- 34
2020-06-25 17:00:00 31.9 21 Sur 37 Sur 0 -- -- 33
2020-06-25 16:00:00 31.7 20 Sur 35 Sur 0 -- -- 31
2020-06-25 15:00:00 31.2 16 Sudoeste 35 Sudoeste 0 -- -- 32
2020-06-25 14:00:00 30.3 15 Sur 37 Sur 0 -- -- 31
2020-06-25 13:00:00 30 15 Sudoeste 30 Oeste 0 -- -- 30
2020-06-25 12:00:00 27.9 14 Sudoeste 24 Sudoeste 0 -- -- 37
2020-06-25 11:00:00 26.3 11 Sudoeste 23 Oeste 0 -- -- 41
2020-06-25 10:00:00 24.2 9 Noroeste 20 Oeste 0 -- -- 50
2020-06-25 09:00:00 21.7 8 Sur 13 Sur 0 -- -- 59
2020-06-25 08:00:00 17.4 5 Norte 11 Sudoeste 0 -- -- 78
2020-06-25 07:00:00 17.8 6 Oeste 16 Oeste 0 -- -- 75
2020-06-25 06:00:00 18.2 12 Oeste 20 Oeste 0 -- -- 74
2020-06-25 05:00:00 18.9 13 Noroeste 17 Noroeste 0 -- -- 73
2020-06-25 04:00:00 19.8 13 Noroeste 15 Noroeste 0 -- -- 70
2020-06-25 03:00:00 20.7 10 Noroeste 12 Noroeste 0 -- -- 65
2020-06-25 02:00:00 21.4 10 Noroeste 11 Noroeste 0 -- -- 58
2020-06-25 01:00:00 22.7 10 Oeste 12 Noroeste 0 -- -- 52
2020-06-25 00:00:00 23.2 9 Noroeste 18 Noroeste 0 -- -- 46
2020-06-24 23:00:00 25.5 13 Noroeste 19 Oeste 0 -- -- 36
2020-06-24 22:00:00 28 16 Oeste 25 Oeste 0 -- -- 30
2020-06-24 21:00:00 30.6 18 Oeste 27 Oeste 0 -- -- 28
2020-06-24 20:00:00 32.1 21 Oeste 34 Oeste 0 -- -- 27
2020-06-24 19:00:00 33.3 22 Oeste 35 Oeste 0 -- -- 27
2020-06-24 18:00:00 34.1 19 Oeste 35 Oeste 0 -- -- 27
2020-06-24 17:00:00 34.4 13 Oeste 27 Oeste 0 -- -- 27
2020-06-24 16:00:00 33.8 10 Oeste 24 Sudoeste 0 -- -- 28
2020-06-24 15:00:00 32.2 8 Noroeste 26 Oeste 0 -- -- 30
2020-06-24 14:00:00 30.8 8 Noroeste 23 Noroeste 0 -- -- 36
2020-06-24 13:00:00 28.8 10 Oeste 21 Norte 0 -- -- 43
2020-06-24 12:00:00 25.8 11 Noroeste 21 Oeste 0 -- -- 53
2020-06-24 11:00:00 24.7 12 Noroeste 17 Noroeste 0 -- -- 57
2020-06-24 10:00:00 24.1 3 Sur 10 Norte 0 -- -- 60
2020-06-24 09:00:00 20.8 4 Noroeste 7 Noroeste 0 -- -- 69
2020-06-24 08:00:00 19.5 5 Noroeste 10 Sur 0 -- -- 75
2020-06-24 07:00:00 19.8 10 Sur 15 Sur 0 -- -- 74
2020-06-24 06:00:00 20.6 11 Sur 15 Sur 0 -- -- 69
2020-06-24 05:00:00 21.6 12 Sudoeste 18 Sudoeste 0 -- -- 63
2020-06-24 04:00:00 23.3 7 Sudoeste 13 Noroeste 0 -- -- 56
2020-06-24 03:00:00 23.9 12 Noroeste 15 Oeste 0 -- -- 54
2020-06-24 02:00:00 25 12 Noroeste 19 Oeste 0 -- -- 50
2020-06-24 01:00:00 26.1 13 Oeste 21 Oeste 0 -- -- 49
2020-06-24 00:00:00 27.6 16 Oeste 26 Noroeste 0 -- -- 46
2020-06-23 23:00:00 29.7 18 Oeste 26 Oeste 0 -- -- 40
2020-06-23 22:00:00 33.1 13 Oeste 22 Oeste 0 -- -- 32
2020-06-23 21:00:00 35.3 9 Sudoeste 24 Sur 0 -- -- 22
2020-06-23 20:00:00 36.6 15 Sudoeste 27 Sur 0 -- -- 20
2020-06-23 19:00:00 37.4 16 Sur 39 Sudeste 0 -- -- 19
2020-06-23 18:00:00 37.6 15 Sur 33 Sur 0 -- -- 18
2020-06-23 17:00:00 37.7 23 Sur 34 Sur 0 -- -- 19
2020-06-23 16:00:00 37.3 14 Sudeste 37 Sur 0 -- -- 20
2020-06-23 15:00:00 37.6 18 Sur 26 Sur 0 -- -- 18
2020-06-23 14:00:00 36.1 9 Sudeste 26 Sudeste 0 -- -- 21
2020-06-23 13:00:00 34.6 10 Sur 23 Sudeste 0 -- -- 23
2020-06-23 12:00:00 32.7 10 Sudeste 20 Sudeste 0 -- -- 25
2020-06-23 11:00:00 31.3 10 Sudeste 17 Sudeste 0 -- -- 27
2020-06-23 10:00:00 28.9 11 Sudeste 21 Sudeste 0 -- -- 29
2020-06-23 09:00:00 26.8 8 Sudeste 15 Este 0 -- -- 34
2020-06-23 08:00:00 23.8 10 Sudeste 19 Este 0 -- -- 38
2020-06-23 07:00:00 22.3 9 Este 15 Este 0 -- -- 39
2020-06-23 06:00:00 21.6 10 Nordeste 15 Nordeste 0 -- -- 45
2020-06-23 05:00:00 22.4 13 Nordeste 15 Nordeste 0 -- -- 44
2020-06-23 04:00:00 23.1 10 Norte 15 Norte 0 -- -- 42
2020-06-23 03:00:00 25.1 10 Nordeste 14 Norte 0 -- -- 36
2020-06-23 02:00:00 26.7 8 Noroeste 10 Noroeste 0 -- -- 33
2020-06-23 01:00:00 27.1 5 Oeste 18 Nordeste 0 -- -- 33
2020-06-23 00:00:00 27.8 16 Nordeste 18 Nordeste 0 -- -- 32
2020-06-22 23:00:00 28.5 15 Nordeste 18 Nordeste 0 -- -- 31
2020-06-22 22:00:00 30.2 12 Nordeste 14 Nordeste 0 -- -- 28
2020-06-22 21:00:00 35.6 2 Este 10 Sudeste 0 -- -- 17
2020-06-22 20:00:00 36.4 4 Sudeste 20 Este 0 -- -- 16
2020-06-22 19:00:00 36.8 8 Este 21 Sudeste 0 -- -- 16
2020-06-22 18:00:00 37.2 6 Noroeste 22 Sur 0 -- -- 16
2020-06-22 17:00:00 37.1 14 Sur 27 Sur 0 -- -- 17
2020-06-22 16:00:00 36.6 8 Sur 24 Sudeste 0 -- -- 17
2020-06-22 15:00:00 36.1 11 Sur 25 Sur 0 -- -- 17
2020-06-22 14:00:00 35.1 14 Sudeste 35 Sudeste 0 -- -- 21
2020-06-22 13:00:00 33.1 12 Este 39 Este 0 -- -- 28
2020-06-22 12:00:00 31.3 19 Este 38 Este 0 -- -- 30
2020-06-22 11:00:00 29.8 23 Este 39 Este 0 -- -- 33
2020-06-22 10:00:00 26.6 24 Este 39 Este 0 -- -- 41
2020-06-22 09:00:00 23.3 18 Este 30 Nordeste 0 -- -- 47
2020-06-22 08:00:00 19.2 10 Norte 19 Norte 0 -- -- 70
2020-06-22 07:00:00 16.2 14 Norte 16 Norte 0 -- -- 81
2020-06-22 06:00:00 17.4 13 Norte 17 Norte 0 -- -- 74
2020-06-22 05:00:00 18.6 15 Norte 21 Norte 0 -- -- 70
2020-06-22 04:00:00 19.6 18 Norte 25 Norte 0 -- -- 67
2020-06-22 03:00:00 21.2 18 Norte 22 Norte 0 -- -- 62
2020-06-22 02:00:00 22.4 18 Norte 24 Norte 0 -- -- 56
2020-06-22 01:00:00 21.7 16 Norte 20 Norte 0 -- -- 52
2020-06-22 00:00:00 23.2 16 Norte 19 Norte 0 -- -- 43
2020-06-21 23:00:00 23.9 15 Norte 18 Norte 0 -- -- 36
2020-06-21 22:00:00 26.5 16 Norte 19 Norte 0 -- -- 29
2020-06-21 21:00:00 30.5 16 Norte 25 Noroeste 0 -- -- 22
2020-06-21 20:00:00 32.2 20 Noroeste 29 Noroeste 0 -- -- 23
2020-06-21 19:00:00 33.5 13 Noroeste 29 Noroeste 0 -- -- 22
2020-06-21 18:00:00 33.4 13 Noroeste 23 Noroeste 0 -- -- 21
2020-06-21 17:00:00 33.1 15 Norte 24 Norte 0 -- -- 21
2020-06-21 16:00:00 32.2 6 Oeste 25 Noroeste 0 -- -- 21
2020-06-21 15:00:00 31.2 12 Norte 24 Noroeste 0 -- -- 21
2020-06-21 14:00:00 29.5 10 Noroeste 20 Noroeste 0 -- -- 24
2020-06-21 13:00:00 28 10 Noroeste 22 Noroeste 0 -- -- 28
2020-06-21 12:00:00 26.2 12 Norte 20 Norte 0 -- -- 31
2020-06-21 11:00:00 24 11 Norte 19 Norte 0 -- -- 40
2020-06-21 10:00:00 21 8 Norte 14 Norte 0 -- -- 52
2020-06-21 09:00:00 17.5 5 Noroeste 12 Noroeste 0 -- -- 68
2020-06-21 08:00:00 14 10 Noroeste 13 Noroeste 0 -- -- 84
2020-06-21 07:00:00 12.9 12 Noroeste 14 Noroeste 0 -- -- 87
2020-06-21 06:00:00 13.4 11 Noroeste 14 Noroeste 0 -- -- 85
2020-06-21 05:00:00 14.1 8 Noroeste 14 Noroeste 0 -- -- 83
2020-06-21 04:00:00 14.5 12 Noroeste 17 Noroeste 0 -- -- 80
2020-06-21 03:00:00 15.7 15 Noroeste 20 Noroeste 0 -- -- 77
2020-06-21 02:00:00 16.6 14 Noroeste 23 Oeste 0 -- -- 73
2020-06-21 01:00:00 18.6 16 Noroeste 23 Oeste 0 -- -- 66
2020-06-21 00:00:00 20.3 18 Oeste 28 Oeste 0 -- -- 59
2020-06-20 23:00:00 22.4 22 Oeste 31 Oeste 0 -- -- 52
2020-06-20 22:00:00 25.2 25 Oeste 34 Oeste 0 -- -- 45
2020-06-20 21:00:00 28.9 21 Oeste 31 Oeste 0 -- -- 29
2020-06-20 20:00:00 30.6 21 Oeste 30 Oeste 0 -- -- 24
2020-06-20 19:00:00 31.8 21 Oeste 33 Oeste 0 -- -- 22
2020-06-20 18:00:00 32 16 Oeste 28 Oeste 0 -- -- 22
2020-06-20 17:00:00 31.9 10 Oeste 28 Sudoeste 0 -- -- 23
2020-06-20 16:00:00 31.1 15 Noroeste 27 Oeste 0 -- -- 26
2020-06-20 15:00:00 30.2 8 Oeste 26 Oeste 0 -- -- 27
2020-06-20 14:00:00 28.8 6 Norte 20 Oeste 0 -- -- 31
2020-06-20 13:00:00 27.2 9 Oeste 18 Oeste 0 -- -- 36
2020-06-20 12:00:00 25.6 9 Noroeste 16 Norte 0 -- -- 40
2020-06-20 11:00:00 24 6 Norte 19 Noroeste 0 -- -- 44
2020-06-20 10:00:00 20.6 8 Noroeste 13 Noroeste 0 -- -- 51
2020-06-20 09:00:00 17.6 8 Noroeste 10 Noroeste 0 -- -- 61
2020-06-20 08:00:00 14.9 7 Oeste 9 Oeste 0 -- -- 71
2020-06-20 07:00:00 13.3 8 Oeste 12 Noroeste 0 -- -- 75
2020-06-20 06:00:00 13.3 9 Noroeste 12 Noroeste 0 -- -- 74
2020-06-20 05:00:00 14 9 Noroeste 13 Noroeste 0 -- -- 71
2020-06-20 04:00:00 15.2 8 Noroeste 13 Noroeste 0 -- -- 65
2020-06-20 03:00:00 16.2 12 Noroeste 14 Noroeste 0 -- -- 61
2020-06-20 02:00:00 17 10 Noroeste 15 Noroeste 0 -- -- 59
2020-06-20 01:00:00 18.4 10 Oeste 23 Oeste 0 -- -- 55
2020-06-20 00:00:00 19.9 18 Oeste 27 Oeste 0 -- -- 52
2020-06-19 23:00:00 21.4 20 Oeste 27 Oeste 0 -- -- 47
2020-06-19 22:00:00 24.1 19 Oeste 27 Oeste 0 -- -- 37
2020-06-19 21:00:00 27.7 18 Oeste 25 Oeste 0 -- -- 27
2020-06-19 20:00:00 29.3 12 Noroeste 26 Oeste 0 -- -- 20
2020-06-19 19:00:00 30 14 Oeste 25 Oeste 0 -- -- 20
2020-06-19 18:00:00 30.2 9 Sudoeste 26 Noroeste 0 -- -- 22
2020-06-19 17:00:00 29.4 9 Oeste 28 Oeste 0 -- -- 25
2020-06-19 16:00:00 28.7 9 Sudoeste 37 Sur 0 -- -- 27
2020-06-19 15:00:00 27.6 5 Noroeste 23 Oeste 0 -- -- 31
2020-06-19 14:00:00 26.3 7 Oeste 21 Oeste 0 -- -- 34
2020-06-19 13:00:00 24.8 6 Norte 17 Oeste 0 -- -- 39
2020-06-19 12:00:00 22.8 7 Noroeste 13 Noroeste 0 -- -- 43
2020-06-19 11:00:00 20.8 5 Oeste 13 Noroeste 0 -- -- 50
2020-06-19 10:00:00 17.9 8 Oeste 15 Oeste 0 -- -- 57
2020-06-19 09:00:00 15.4 12 Noroeste 15 Oeste 0 -- -- 66
2020-06-19 08:00:00 12.6 8 Oeste 12 Oeste 0 -- -- 77
2020-06-19 07:00:00 11.6 10 Oeste 12 Oeste 0 -- -- 78
2020-06-19 06:00:00 11.6 10 Oeste 14 Noroeste 0 -- -- 79
2020-06-19 05:00:00 12.2 12 Noroeste 18 Oeste 0 -- -- 76
2020-06-19 04:00:00 12.8 13 Noroeste 18 Noroeste 0 -- -- 73
2020-06-19 03:00:00 13.6 14 Noroeste 19 Noroeste 0 -- -- 70
2020-06-19 02:00:00 14.6 17 Noroeste 21 Noroeste 0 -- -- 66
2020-06-19 01:00:00 16 15 Noroeste 24 Noroeste 0 -- -- 62
2020-06-19 00:00:00 18.1 18 Oeste 26 Oeste 0 -- -- 56
2020-06-18 23:00:00 20.1 22 Noroeste 30 Oeste 0 -- -- 51
2020-06-18 22:00:00 22.5 24 Noroeste 41 Oeste 0 -- -- 46
2020-06-18 21:00:00 25.6 23 Oeste 40 Oeste 0 -- -- 37
2020-06-18 20:00:00 26.5 9 Oeste 26 Oeste 0 -- -- 34
2020-06-18 19:00:00 28.2 10 Sudoeste 28 Noroeste 0 -- -- 30
2020-06-18 18:00:00 28.2 14 Noroeste 29 Oeste 0 -- -- 28
2020-06-18 17:00:00 28 9 Oeste 33 Oeste 0 -- -- 29
2020-06-18 16:00:00 27.4 8 Noroeste 26 Oeste 0 -- -- 32
2020-06-18 15:00:00 26.6 14 Oeste 26 Noroeste 0 -- -- 34
2020-06-18 14:00:00 25.4 7 Norte 20 Oeste 0 -- -- 37
2020-06-18 13:00:00 23.9 7 Oeste 18 Sudoeste 0 -- -- 41
2020-06-18 12:00:00 22.3 5 Noroeste 15 Norte 0 -- -- 45
2020-06-18 11:00:00 20.3 6 Norte 15 Noroeste 0 -- -- 52
2020-06-18 10:00:00 17.9 7 Norte 13 Noroeste 0 -- -- 61
2020-06-18 09:00:00 15 5 Noroeste 9 Oeste 0 -- -- 73
2020-06-18 08:00:00 12.3 7 Noroeste 10 Oeste 0 -- -- 83
2020-06-18 07:00:00 11.5 8 Oeste 10 Oeste 0 -- -- 83
2020-06-18 06:00:00 11.6 8 Oeste 15 Noroeste 0 -- -- 82
2020-06-18 05:00:00 11.9 12 Noroeste 18 Noroeste 0 -- -- 80
2020-06-18 04:00:00 12.7 14 Noroeste 19 Noroeste 0 -- -- 77
2020-06-18 03:00:00 13.5 13 Noroeste 17 Noroeste 0 -- -- 74
2020-06-18 02:00:00 14.1 12 Noroeste 18 Oeste 0 -- -- 70
2020-06-18 01:00:00 15.7 16 Oeste 27 Oeste 0 -- -- 64
2020-06-18 00:00:00 17.2 20 Oeste 26 Oeste 0 -- -- 60
2020-06-17 23:00:00 18.6 21 Oeste 28 Oeste 0 -- -- 56
2020-06-17 22:00:00 20.6 21 Oeste 33 Oeste 0 -- -- 49
2020-06-17 21:00:00 23.6 21 Oeste 29 Oeste 0 -- -- 39
2020-06-17 20:00:00 25 17 Oeste 28 Oeste 0 -- -- 36
2020-06-17 19:00:00 25.7 13 Oeste 30 Noroeste 0 -- -- 31
2020-06-17 18:00:00 25.9 12 Oeste 33 Oeste 0 -- -- 31
2020-06-17 17:00:00 25.7 15 Noroeste 30 Noroeste 0 -- -- 31
2020-06-17 16:00:00 24.6 10 Oeste 30 Noroeste 0 -- -- 32
2020-06-17 15:00:00 23.6 12 Noroeste 27 Noroeste 0 -- -- 36
2020-06-17 14:00:00 22.2 13 Oeste 24 Oeste 0 -- -- 39
2020-06-17 13:00:00 20.9 10 Oeste 22 Oeste 0 -- -- 44
2020-06-17 12:00:00 19.2 4 Sudoeste 19 Noroeste 0 -- -- 49
2020-06-17 11:00:00 17.6 9 Noroeste 17 Noroeste 0 -- -- 55
2020-06-17 10:00:00 15.6 12 Noroeste 16 Noroeste 0 -- -- 61
2020-06-17 09:00:00 13.6 13 Noroeste 18 Noroeste 0 -- -- 69
2020-06-17 08:00:00 10.6 13 Noroeste 15 Noroeste 0 -- -- 82
2020-06-17 07:00:00 9.6 11 Oeste 15 Oeste 0 -- -- 85
2020-06-17 06:00:00 9.7 10 Noroeste 16 Noroeste 0 -- -- 85
2020-06-17 05:00:00 10.2 12 Noroeste 22 Noroeste 0 -- -- 84
2020-06-17 04:00:00 11.2 18 Noroeste 27 Noroeste 0 -- -- 80
2020-06-17 03:00:00 12.6 21 Noroeste 31 Noroeste 0 -- -- 75
2020-06-17 02:00:00 13.1 21 Noroeste 28 Noroeste 0 -- -- 72
2020-06-17 01:00:00 13.8 17 Noroeste 30 Noroeste 0 -- -- 68
2020-06-17 00:00:00 15.5 19 Noroeste 33 Noroeste 0 -- -- 63
2020-06-16 23:00:00 17.2 21 Noroeste 28 Noroeste 0 -- -- 63
2020-06-16 22:00:00 18.8 22 Noroeste 41 Noroeste 0 -- -- 60
2020-06-16 21:00:00 21.2 32 Noroeste 46 Oeste 0 -- -- 52
2020-06-16 20:00:00 22.9 35 Noroeste 47 Noroeste 0 -- -- 47
2020-06-16 19:00:00 24.3 38 Noroeste 51 Noroeste 0 -- -- 43
2020-06-16 18:00:00 25 30 Noroeste 41 Noroeste 0 -- -- 42
2020-06-16 17:00:00 26 23 Noroeste 41 Noroeste 0 -- -- 38
2020-06-16 16:00:00 25.4 21 Noroeste 37 Oeste 0 -- -- 39
2020-06-16 15:00:00 25.7 24 Noroeste 39 Oeste 0 -- -- 37
2020-06-16 14:00:00 24.5 17 Oeste 35 Oeste 0 -- -- 40
2020-06-16 13:00:00 23.3 17 Oeste 31 Oeste 0 -- -- 43
2020-06-16 12:00:00 21.6 17 Oeste 30 Oeste 0 -- -- 47
2020-06-16 11:00:00 20.6 15 Noroeste 27 Oeste 0 -- -- 48
2020-06-16 10:00:00 18.7 11 Oeste 17 Oeste 0 -- -- 57
2020-06-16 09:00:00 16.2 12 Noroeste 16 Oeste 0 -- -- 70
2020-06-16 08:00:00 13.3 9 Oeste 13 Noroeste 0 -- -- 82
2020-06-16 07:00:00 12.3 9 Noroeste 15 Oeste 0 -- -- 86
2020-06-16 06:00:00 12.2 12 Noroeste 18 Noroeste 0 -- -- 86
2020-06-16 05:00:00 12.4 14 Noroeste 17 Noroeste 0 -- -- 85
2020-06-16 04:00:00 12.8 15 Noroeste 17 Noroeste 0 -- -- 83
2020-06-16 03:00:00 13.9 13 Noroeste 19 Noroeste 0 -- -- 79
2020-06-16 02:00:00 14.9 13 Noroeste 23 Noroeste 0 -- -- 75
2020-06-16 01:00:00 16.3 19 Noroeste 24 Noroeste 0 -- -- 68
2020-06-16 00:00:00 17.3 18 Noroeste 27 Noroeste 0 -- -- 62
2020-06-15 23:00:00 18.5 18 Noroeste 27 Noroeste 0 -- -- 56
2020-06-15 22:00:00 20.3 22 Noroeste 36 Oeste 0 -- -- 50
2020-06-15 21:00:00 23.4 23 Noroeste 33 Noroeste 0 -- -- 43
2020-06-15 20:00:00 25.3 20 Noroeste 28 Oeste 0 -- -- 37
2020-06-15 19:00:00 25.5 14 Noroeste 35 Oeste 0 -- -- 36
2020-06-15 18:00:00 26.3 13 Noroeste 31 Noroeste 0 -- -- 34
2020-06-15 17:00:00 26 13 Noroeste 32 Noroeste 0 -- -- 35
2020-06-15 16:00:00 25 17 Noroeste 29 Oeste 0 -- -- 37
2020-06-15 15:00:00 23.9 7 Noroeste 24 Noroeste 0 -- -- 40
2020-06-15 14:00:00 23.4 10 Noroeste 22 Norte 0 -- -- 43
2020-06-15 13:00:00 21.3 5 Noroeste 24 Norte 0 -- -- 49
2020-06-15 12:00:00 20.1 8 Oeste 20 Noroeste 0 -- -- 53
2020-06-15 11:00:00 18.9 6 Oeste 15 Noroeste 0 -- -- 58
2020-06-15 10:00:00 16.7 10 Noroeste 17 Noroeste 0 -- -- 67
2020-06-15 09:00:00 14 9 Oeste 16 Oeste 0 -- -- 78
2020-06-15 08:00:00 11.7 10 Noroeste 15 Noroeste 0 -- -- 88
2020-06-15 07:00:00 10.7 10 Noroeste 14 Noroeste 0 -- -- 88
2020-06-15 06:00:00 11.2 12 Noroeste 16 Oeste 0 -- -- 87
2020-06-15 05:00:00 11.9 13 Oeste 19 Oeste 0 -- -- 84
2020-06-15 04:00:00 12.4 12 Oeste 17 Oeste 0 -- -- 81
2020-06-15 03:00:00 12.8 12 Oeste 16 Oeste 0 -- -- 80
2020-06-15 02:00:00 13.5 11 Noroeste 18 Noroeste 0 -- -- 78
2020-06-15 01:00:00 14.9 18 Noroeste 23 Noroeste 0 -- -- 73
2020-06-15 00:00:00 15.6 18 Noroeste 30 Noroeste 0 -- -- 70
2020-06-14 23:00:00 17.2 23 Noroeste 31 Oeste 0 -- -- 63
2020-06-14 22:00:00 19.2 24 Oeste 34 Oeste 0 -- -- 56
2020-06-14 21:00:00 21.9 29 Oeste 39 Oeste 0 -- -- 48
2020-06-14 20:00:00 24.1 22 Oeste 33 Oeste 0 -- -- 37
2020-06-14 19:00:00 25.2 19 Oeste 34 Oeste 0 -- -- 33
2020-06-14 18:00:00 25.5 14 Noroeste 29 Oeste 0 -- -- 32
2020-06-14 17:00:00 25.1 13 Noroeste 31 Noroeste 0 -- -- 31
2020-06-14 16:00:00 24.2 15 Noroeste 30 Oeste 0 -- -- 33
2020-06-14 15:00:00 23.9 16 Oeste 28 Oeste 0 -- -- 36
2020-06-14 14:00:00 23.1 16 Oeste 27 Oeste 0 -- -- 35
2020-06-14 13:00:00 21.7 9 Oeste 22 Sur 0 -- -- 41
2020-06-14 12:00:00 20.5 10 Oeste 21 Este 0 -- -- 46
2020-06-14 11:00:00 18.6 9 Noroeste 18 Oeste 0 -- -- 54
2020-06-14 10:00:00 16.4 10 Oeste 17 Oeste 0 -- -- 65
2020-06-14 09:00:00 14.1 8 Noroeste 10 Oeste 0 -- -- 78
2020-06-14 08:00:00 11.7 7 Noroeste 8 Noroeste 0 -- -- 85
2020-06-14 07:00:00 11.7 5 Oeste 9 Noroeste 0 -- -- 81
2020-06-14 06:00:00 10.8 8 Noroeste 11 Noroeste 0 -- -- 86
2020-06-14 05:00:00 11.2 8 Noroeste 10 Noroeste 0 -- -- 85
2020-06-14 04:00:00 11.7 8 Oeste 13 Noroeste 0 -- -- 83
2020-06-14 03:00:00 12.1 11 Noroeste 13 Noroeste 0 -- -- 81
2020-06-14 02:00:00 12.3 12 Noroeste 15 Noroeste 0 -- -- 78
2020-06-14 01:00:00 12.8 14 Noroeste 16 Noroeste 0 -- -- 75
2020-06-14 00:00:00 13.5 12 Noroeste 17 Noroeste 0 -- -- 71
2020-06-13 23:00:00 14.6 13 Noroeste 22 Noroeste 0 -- -- 66
2020-06-13 22:00:00 18.1 15 Oeste 22 Oeste 0 -- -- 53
2020-06-13 21:00:00 19.6 15 Oeste 29 Oeste 0 -- -- 48
2020-06-13 20:00:00 20.9 18 Oeste 27 Noroeste 0 -- -- 44
2020-06-13 19:00:00 21.2 17 Oeste 32 Oeste 0 -- -- 43
2020-06-13 18:00:00 22.2 17 Oeste 30 Oeste 0 -- -- 40
2020-06-13 17:00:00 22.1 17 Oeste 29 Oeste 0 -- -- 40
2020-06-13 16:00:00 20.8 18 Oeste 30 Oeste 0 -- -- 43
2020-06-13 15:00:00 20.9 17 Noroeste 27 Oeste 0 -- -- 44
2020-06-13 14:00:00 19.9 11 Oeste 26 Noroeste 0 -- -- 47
2020-06-13 13:00:00 18.9 12 Noroeste 23 Noroeste 0 -- -- 52
2020-06-13 12:00:00 18.9 13 Oeste 23 Oeste 0 -- -- 53
2020-06-13 11:00:00 17.1 14 Noroeste 22 Noroeste 0 -- -- 62
2020-06-13 10:00:00 15.5 16 Oeste 23 Oeste 0 -- -- 71
2020-06-13 09:00:00 13.4 17 Noroeste 21 Oeste 0 -- -- 86
2020-06-13 08:00:00 10.7 9 Noroeste 14 Oeste 0 -- -- 95
2020-06-13 07:00:00 9.8 10 Oeste 23 Oeste 0 -- -- 95
2020-06-13 06:00:00 10.1 14 Noroeste 26 Oeste 0 -- -- 94
2020-06-13 05:00:00 10.5 18 Oeste 27 Oeste 0 -- -- 93
2020-06-13 04:00:00 10.7 19 Oeste 26 Oeste 0 -- -- 90
2020-06-13 03:00:00 10.4 13 Oeste 19 Oeste 0 -- -- 87
2020-06-13 02:00:00 10.9 13 Sudoeste 20 Sudoeste 0 -- -- 80
2020-06-13 01:00:00 12.2 13 Sudoeste 29 Oeste 0 -- -- 74
2020-06-13 00:00:00 12.1 11 Oeste 17 Noroeste 0 -- -- 75
2020-06-12 23:00:00 12.7 14 Noroeste 18 Noroeste 0 -- -- 72
2020-06-12 22:00:00 14.6 15 Noroeste 33 Noroeste 0 -- -- 63
2020-06-12 21:00:00 17.1 23 Noroeste 39 Noroeste 0 -- -- 52
2020-06-12 20:00:00 18.6 30 Noroeste 50 Noroeste 0 -- -- 50
2020-06-12 19:00:00 20 38 Noroeste 49 Noroeste 0 -- -- 46
2020-06-12 18:00:00 19.1 31 Noroeste 41 Noroeste 0 -- -- 51
2020-06-12 17:00:00 20.2 27 Oeste 42 Sudoeste 0 -- -- 45
2020-06-12 16:00:00 16.6 31 Oeste 45 Oeste 0 -- -- 67
2020-06-12 15:00:00 19.4 21 Oeste 41 Oeste 0 -- -- 51
2020-06-12 14:00:00 18.3 30 Oeste 48 Oeste 0 -- -- 53
2020-06-12 13:00:00 17.7 26 Oeste 42 Oeste 0 -- -- 56
2020-06-12 12:00:00 17.1 27 Oeste 41 Oeste 0 -- -- 56
2020-06-12 11:00:00 15.8 26 Oeste 40 Oeste 0 -- -- 65
2020-06-12 10:00:00 13.6 28 Oeste 40 Oeste 0 -- -- 78
2020-06-12 09:00:00 12.5 27 Oeste 37 Oeste 0 -- -- 81
2020-06-12 08:00:00 10.5 21 Oeste 29 Oeste 0 -- -- 89
2020-06-12 07:00:00 9.2 18 Oeste 23 Oeste 0 -- -- 91
2020-06-12 06:00:00 8.5 16 Oeste 23 Oeste 0 -- -- 90
2020-06-12 05:00:00 8.3 13 Sudoeste 21 Oeste 0 -- -- 90
2020-06-12 04:00:00 9.3 14 Oeste 27 Oeste 0 -- -- 85
2020-06-12 03:00:00 9.5 16 Oeste 27 Oeste 0 -- -- 82
2020-06-12 02:00:00 10.4 18 Oeste 26 Oeste 0 -- -- 74
2020-06-12 01:00:00 11.8 16 Noroeste 31 Noroeste 0 -- -- 69
2020-06-12 00:00:00 12.4 22 Noroeste 40 Noroeste 0 -- -- 67
2020-06-11 23:00:00 13.2 32 Noroeste 40 Oeste 0 -- -- 64
2020-06-11 22:00:00 14.7 32 Noroeste 50 Oeste 0 -- -- 62
2020-06-11 21:00:00 17.1 33 Noroeste 48 Noroeste 0 -- -- 58
2020-06-11 20:00:00 19.1 37 Oeste 58 Oeste 0 -- -- 48
2020-06-11 19:00:00 19.9 38 Oeste 59 Oeste 0 -- -- 51
2020-06-11 18:00:00 21.5 45 Oeste 59 Oeste 0 -- -- 55
2020-06-11 17:00:00 19.9 36 Oeste 58 Oeste 0 -- -- 62
2020-06-11 16:00:00 21.5 37 Oeste 52 Oeste 0 -- -- 54
2020-06-11 15:00:00 22.4 35 Oeste 49 Oeste 0 -- -- 49
2020-06-11 14:00:00 22.5 28 Oeste 45 Oeste 0 -- -- 49
2020-06-11 13:00:00 21 22 Oeste 35 Oeste 0 -- -- 50
2020-06-11 12:00:00 20 21 Noroeste 30 Oeste 0 -- -- 43
2020-06-11 11:00:00 18.1 17 Noroeste 28 Oeste 0 -- -- 48
2020-06-11 10:00:00 16.2 19 Noroeste 28 Oeste 0 -- -- 54
2020-06-11 09:00:00 13.9 21 Oeste 27 Oeste 0 -- -- 65
2020-06-11 08:00:00 11.4 15 Oeste 22 Oeste 0 -- -- 80
2020-06-11 07:00:00 10.6 13 Oeste 19 Oeste 0 -- -- 81
2020-06-11 06:00:00 10.6 13 Oeste 22 Oeste 0 -- -- 80
2020-06-11 05:00:00 10.9 15 Oeste 19 Oeste 0 -- -- 79
2020-06-11 04:00:00 11.1 13 Oeste 18 Oeste 0 -- -- 80
2020-06-11 03:00:00 11.7 11 Oeste 18 Oeste 0 -- -- 80
2020-06-11 02:00:00 13.4 14 Oeste 30 Oeste 0 -- -- 74
2020-06-11 01:00:00 14.9 21 Oeste 31 Oeste 0 -- -- 68
2020-06-11 00:00:00 16.5 24 Oeste 36 Oeste 0 -- -- 60
2020-06-10 23:00:00 18.4 26 Oeste 37 Oeste 0 -- -- 54
2020-06-10 22:00:00 20.9 25 Oeste 33 Oeste 0 -- -- 51
2020-06-10 21:00:00 24.1 21 Oeste 34 Oeste 0 -- -- 30
2020-06-10 20:00:00 25.8 21 Oeste 33 Oeste 0 -- -- 24
2020-06-10 19:00:00 26.8 22 Oeste 37 Oeste 0 -- -- 19
2020-06-10 18:00:00 27.5 24 Oeste 44 Oeste 0 -- -- 20
2020-06-10 17:00:00 28.2 19 Oeste 39 Oeste 0 -- -- 29
2020-06-10 16:00:00 27.8 18 Sudoeste 37 Sudoeste 0 -- -- 21
2020-06-10 15:00:00 27.4 21 Sudoeste 36 Sudoeste 0 -- -- 21
2020-06-10 14:00:00 26.5 15 Sudoeste 31 Sudoeste 0 -- -- 26
2020-06-10 13:00:00 25.1 11 Sudoeste 20 Oeste 0 -- -- 30
2020-06-10 12:00:00 23.8 5 Sur 14 Sudeste 0 -- -- 38
2020-06-10 11:00:00 21.5 4 Sudeste 15 Este 0 -- -- 41
2020-06-10 10:00:00 19.7 10 Este 19 Este 0 -- -- 43
2020-06-10 09:00:00 17.3 9 Este 17 Nordeste 0 -- -- 50
2020-06-10 08:00:00 14.3 3 Nordeste 8 Nordeste 0 -- -- 67
2020-06-10 07:00:00 12.7 6 Noroeste 10 Noroeste 0 -- -- 70
2020-06-10 06:00:00 12.3 10 Noroeste 11 Noroeste 0 -- -- 72
2020-06-10 05:00:00 12.7 11 Noroeste 13 Noroeste 0 -- -- 71
2020-06-10 04:00:00 13.6 10 Noroeste 17 Noroeste 0 -- -- 68
2020-06-10 03:00:00 14 14 Noroeste 19 Noroeste 0 -- -- 66
2020-06-10 02:00:00 14.6 13 Noroeste 19 Oeste 0 -- -- 66
2020-06-10 01:00:00 15.2 15 Noroeste 23 Noroeste 0 -- -- 64
2020-06-10 00:00:00 17.3 17 Noroeste 27 Noroeste 0 -- -- 58